Time;durP1;ratioP1;P1;durP2;ratioP2;P2;SDS_P1;SDS_P2;PMS_P1;PMS_P2;Temp;Humidity;BMP_temperature;BMP_pressure;BME280_temperature;BME280_humidity;BME280_pressure;Samples;Min_cycle;Max_cycle;Signal;HPM_P1;HPM_P2
2022/01/10 00:00:44;;;;;;;0.70;0.70;;;-1.30;99.90;;;;;;5115036;27;20601;-79
2022/01/10 00:03:10;;;;;;;0.70;0.70;;;-1.30;99.90;;;;;;5115515;27;20726;-79
2022/01/10 00:05:36;;;;;;;0.80;0.80;;;-1.40;99.90;;;;;;5115268;27;20191;-81
2022/01/10 00:08:21;;;;;;;;;;;;;;;;;;;;;
2022/01/10 00:10:53;;;;;;;0.80;0.80;;;-1.30;99.90;;;;;;5097663;28;20199;-79
2022/01/10 00:13:29;;;;;;;0.80;0.80;;;-1.30;99.90;;;;;;5098161;27;20195;-80
2022/01/10 00:15:55;;;;;;;0.80;0.80;;;-1.30;99.90;;;;;;5095596;27;20277;-79
2022/01/10 00:19:24;;;;;;;;;;;;;;;;;;;;;
2022/01/10 00:22:19;;;;;;;0.70;0.70;;;-1.30;99.90;;;;;;5108065;27;20699;-79
2022/01/10 00:24:56;;;;;;;0.70;0.70;;;-1.40;99.90;;;;;;5114341;27;20211;-79
2022/01/10 00:27:28;;;;;;;0.70;0.70;;;-1.40;99.90;;;;;;5096653;28;20229;-79
2022/01/10 00:33:29;;;;;;;0.70;0.70;;;-1.40;99.90;;;;;;5081387;28;20210;-79
2022/01/10 00:36:00;;;;;;;0.88;0.88;;;-1.50;99.90;;;;;;5096125;28;20206;-79
2022/01/10 00:39:38;;;;;;;0.80;0.80;;;-1.40;99.90;;;;;;5116058;27;20710;-79
2022/01/10 00:42:28;;;;;;;4.38;2.05;;;-1.50;99.90;;;;;;5102547;28;20204;-79
2022/01/10 00:44:55;;;;;;;0.70;0.70;;;-1.60;99.90;;;;;;5093588;28;20272;-80
2022/01/10 00:50:05;;;;;;;0.60;0.60;;;-1.80;99.90;;;;;;5115336;27;20210;-79
2022/01/10 01:00:19;;;;;;;0.82;0.82;;;-2.10;99.90;;;;;;4973768;28;20350;-79
2022/01/10 01:03:00;;;;;;;0.70;0.70;;;-2.10;99.90;;;;;;4990625;28;20212;-79
2022/01/10 01:06:16;;;;;;;0.60;0.60;;;-2.20;99.90;;;;;;4974704;28;20371;-79
2022/01/10 01:09:06;;;;;;;0.70;0.70;;;-2.20;99.90;;;;;;4973501;28;20212;-80
2022/01/10 01:18:55;;;;;;;0.80;0.80;;;-2.00;99.90;;;;;;4990529;28;20279;-80
2022/01/10 01:23:59;;;;;;;0.80;0.80;;;-2.00;99.90;;;;;;4972652;28;20302;-79
2022/01/10 01:27:04;;;;;;;0.80;0.80;;;-1.90;99.90;;;;;;5017600;28;20246;-79
2022/01/10 01:29:31;;;;;;;0.80;0.80;;;-2.00;99.90;;;;;;5075486;28;20240;-80
2022/01/10 01:31:58;;;;;;;0.80;0.80;;;-2.10;99.90;;;;;;5074292;28;20223;-80
2022/01/10 01:34:27;;;;;;;0.90;0.90;;;-2.20;99.90;;;;;;5092000;28;20195;-79
2022/01/10 01:36:57;;;;;;;0.73;0.73;;;-2.30;99.90;;;;;;5074163;28;20694;-79
2022/01/10 01:39:57;;;;;;;0.85;0.85;;;-2.30;99.90;;;;;;5073726;28;20231;-80
2022/01/10 01:42:43;;;;;;;0.80;0.80;;;-2.40;99.90;;;;;;5032522;28;20224;-79
2022/01/10 01:45:37;;;;;;;0.80;0.80;;;-2.50;99.90;;;;;;5057467;28;20224;-79
2022/01/10 01:48:05;;;;;;;0.80;0.80;;;-2.50;99.90;;;;;;5047330;28;20219;-79
2022/01/10 01:50:33;;;;;;;0.80;0.80;;;-2.50;99.90;;;;;;5106981;28;20208;-80
2022/01/10 01:53:00;;;;;;;0.70;0.70;;;-2.60;99.90;;;;;;5057413;28;20207;-80
2022/01/10 01:55:26;;;;;;;0.77;0.77;;;-2.60;99.90;;;;;;5066053;28;20229;-80
2022/01/10 01:57:52;;;;;;;0.80;0.80;;;-2.70;99.90;;;;;;5095010;28;20696;-80
2022/01/10 02:00:22;;;;;;;0.80;0.80;;;-2.70;99.90;;;;;;5094196;28;20202;-80
2022/01/10 02:03:01;;;;;;;0.90;0.90;;;-2.70;99.90;;;;;;5076214;28;20229;-80
2022/01/10 02:05:57;;;;;;;0.80;0.80;;;-2.70;99.90;;;;;;5077155;28;20199;-80
2022/01/10 02:09:34;;;;;;;1.25;1.10;;;-2.70;99.90;;;;;;5081561;28;20682;-80
2022/01/10 02:11:46;;;;;;;0.88;0.88;;;-2.70;99.90;;;;;;5098227;28;20203;-80
2022/01/10 02:14:20;;;;;;;0.80;0.80;;;-2.70;99.90;;;;;;5112087;28;20666;-79
2022/01/10 02:16:56;;;;;;;0.80;0.80;;;-2.80;99.90;;;;;;5092345;28;20209;-80
2022/01/10 02:19:25;;;;;;;0.80;0.80;;;-2.80;99.90;;;;;;5093472;28;20203;-80
2022/01/10 02:22:01;;;;;;;0.85;0.85;;;-2.90;99.90;;;;;;5111857;28;20207;-80
2022/01/10 02:24:56;;;;;;;0.80;0.80;;;-2.90;99.90;;;;;;5095229;28;20737;-79
2022/01/10 02:27:33;;;;;;;0.80;0.80;;;-3.00;99.90;;;;;;5076667;28;20653;-79
2022/01/10 02:30:01;;;;;;;0.80;0.80;;;-3.00;99.90;;;;;;5112164;28;20195;-80
2022/01/10 02:32:38;;;;;;;0.90;0.90;;;-3.00;99.90;;;;;;5094452;28;20203;-80
2022/01/10 02:36:12;;;;;;;0.80;0.80;;;-3.10;99.90;;;;;;5093272;28;20217;-79
2022/01/10 02:38:52;;;;;;;0.80;0.80;;;-3.00;99.90;;;;;;5078583;28;23311;-79
2022/01/10 02:41:27;;;;;;;0.70;0.70;;;-3.00;99.90;;;;;;5093665;28;20210;-80
2022/01/10 02:44:00;;;;;;;0.70;0.70;;;-3.00;99.90;;;;;;5093957;28;20199;-79
2022/01/10 02:46:36;;;;;;;1.30;1.23;;;-3.00;99.90;;;;;;5093200;28;20206;-80
2022/01/10 02:49:45;;;;;;;0.80;0.80;;;-3.00;99.90;;;;;;5093693;28;20191;-79
2022/01/10 02:52:12;;;;;;;0.77;0.77;;;-3.00;99.90;;;;;;5094468;28;20199;-80
2022/01/10 02:54:37;;;;;;;2.38;1.98;;;-3.10;99.90;;;;;;5092822;28;20307;-79
2022/01/10 02:57:09;;;;;;;0.70;0.70;;;-3.10;99.90;;;;;;5093331;28;20286;-80
2022/01/10 02:59:49;;;;;;;0.73;0.73;;;-3.20;99.90;;;;;;5095430;28;20277;-79
2022/01/10 03:02:22;;;;;;;0.77;0.77;;;-3.20;99.90;;;;;;5071575;28;20203;-80
2022/01/10 03:04:51;;;;;;;0.80;0.80;;;-3.30;99.90;;;;;;5072049;28;20204;-80
2022/01/10 03:07:33;;;;;;;0.80;0.80;;;-3.30;99.90;;;;;;5089772;28;20188;-79
2022/01/10 03:10:15;;;;;;;0.67;0.67;;;-3.30;99.90;;;;;;5074199;28;20667;-79
2022/01/10 03:15:54;;;;;;;0.73;0.73;;;-3.30;99.90;;;;;;5086576;28;20219;-79
2022/01/10 03:18:25;;;;;;;0.93;0.85;;;-3.30;99.90;;;;;;5091082;28;20257;-80
2022/01/10 03:21:19;;;;;;;0.85;0.85;;;-3.40;99.90;;;;;;5073986;28;20204;-79
2022/01/10 03:23:58;;;;;;;0.73;0.73;;;-3.40;99.90;;;;;;5073673;28;20212;-80
2022/01/10 03:26:26;;;;;;;0.80;0.80;;;-3.50;99.90;;;;;;5057695;28;20272;-80
2022/01/10 03:29:48;;;;;;;0.80;0.80;;;-3.60;99.90;;;;;;5075206;28;20666;-80
2022/01/10 03:32:50;;;;;;;0.70;0.70;;;-3.70;99.90;;;;;;5066605;28;20212;-80
2022/01/10 03:38:49;;;;;;;0.80;0.80;;;-3.90;99.90;;;;;;5055016;28;20268;-80
2022/01/10 03:44:41;;;;;;;0.80;0.80;;;-4.00;99.90;;;;;;4971712;28;20207;-80
2022/01/10 03:47:14;;;;;;;0.77;0.77;;;-3.90;99.90;;;;;;4994741;28;20370;-79
2022/01/10 03:50:36;;;;;;;;;;;;;;;;;;;;;
2022/01/10 03:54:21;;;;;;;1.35;1.25;;;-3.90;99.90;;;;;;4935288;29;20232;-79
2022/01/10 04:00:30;;;;;;;0.80;0.80;;;-3.80;99.90;;;;;;4877559;29;20286;-80
2022/01/10 04:07:18;;;;;;;1.00;1.00;;;-3.80;99.90;;;;;;4821171;29;20279;-80
2022/01/10 04:13:49;;;;;;;0.80;0.80;;;-3.90;99.90;;;;;;4806884;29;20313;-80
2022/01/10 04:16:53;;;;;;;1.00;1.00;;;-3.90;99.90;;;;;;4801906;29;20218;-79
2022/01/10 04:19:48;;;;;;;0.80;0.80;;;-4.00;99.90;;;;;;4845105;29;20711;-80
2022/01/10 04:22:51;;;;;;;0.88;0.88;;;-4.10;99.90;;;;;;4915110;29;20721;-79
2022/01/10 04:25:20;;;;;;;0.82;0.82;;;-4.10;99.90;;;;;;4871073;29;20227;-79
2022/01/10 04:28:27;;;;;;;1.20;1.10;;;-4.20;99.90;;;;;;4857499;29;20207;-79
2022/01/10 04:38:45;;;;;;;0.80;0.80;;;-4.40;99.90;;;;;;5051009;28;20630;-79
2022/01/10 04:41:57;;;;;;;0.80;0.80;;;-4.30;99.90;;;;;;4955759;28;20266;-79
2022/01/10 04:58:37;;;;;;;0.80;0.80;;;-4.20;99.90;;;;;;4964208;28;20203;-79
2022/01/10 05:05:52;;;;;;;;;;;;;;;;;;;;;
2022/01/10 05:12:48;;;;;;;;;;;;;;;;;;;;;
2022/01/10 05:16:40;;;;;;;;;;;;;;;;;;;;;
2022/01/10 05:22:50;;;;;;;;;;;;;;;;;;;;;
2022/01/10 05:26:09;;;;;;;;;;;;;;;;;;;;;
2022/01/10 05:28:43;;;;;;;0.80;0.80;;;-4.60;99.90;;;;;;5026922;28;20213;-79
2022/01/10 05:32:06;;;;;;;1.25;1.15;;;-4.60;99.90;;;;;;5013679;28;20664;-79
2022/01/10 05:37:50;;;;;;;;;;;;;;;;;;;;;
2022/01/10 05:40:43;;;;;;;1.13;1.13;;;-4.80;99.90;;;;;;5006041;28;20224;-80
2022/01/10 05:43:36;;;;;;;0.80;0.80;;;-4.80;99.90;;;;;;5030768;28;20592;-79
2022/01/10 05:46:59;;;;;;;0.80;0.80;;;-4.90;99.90;;;;;;5008200;28;20239;-78
2022/01/10 05:49:47;;;;;;;;;;;;;;;;;;;;;
2022/01/10 05:52:26;;;;;;;0.80;0.80;;;-5.10;99.90;;;;;;5095356;28;20215;-79
2022/01/10 05:55:18;;;;;;;0.83;0.83;;;-5.20;99.90;;;;;;5095208;28;20546;-77
2022/01/10 05:57:56;;;;;;;0.80;0.80;;;-5.20;99.90;;;;;;5093472;28;20199;-78
2022/01/10 06:04:01;;;;;;;0.80;0.80;;;-5.40;99.90;;;;;;5090240;28;20227;-78
2022/01/10 06:06:39;;;;;;;0.87;0.87;;;-5.40;99.90;;;;;;5082838;28;20683;-80
2022/01/10 06:09:20;;;;;;;0.93;0.93;;;-5.40;99.90;;;;;;5070688;28;20550;-80
2022/01/10 06:12:31;;;;;;;0.90;0.90;;;-5.50;99.90;;;;;;5072089;28;20729;-81
2022/01/10 06:15:08;;;;;;;0.70;0.70;;;-5.50;99.90;;;;;;5073785;28;20211;-80
2022/01/10 06:17:36;;;;;;;0.82;0.82;;;-5.60;99.90;;;;;;5073831;28;20624;-80
2022/01/10 06:20:03;;;;;;;0.90;0.90;;;-5.70;99.90;;;;;;5074545;28;20196;-81
2022/01/10 06:22:45;;;;;;;0.80;0.80;;;-5.80;99.90;;;;;;5073422;28;20211;-81
2022/01/10 06:25:17;;;;;;;0.80;0.80;;;-5.80;99.90;;;;;;5091289;28;20207;-80
2022/01/10 06:27:47;;;;;;;0.80;0.80;;;-5.80;99.90;;;;;;5073944;28;20208;-79
2022/01/10 06:30:15;;;;;;;1.00;1.00;;;-5.80;99.90;;;;;;5072502;28;20200;-80
2022/01/10 06:32:44;;;;;;;0.80;0.80;;;-5.80;99.90;;;;;;5074358;28;20207;-79
2022/01/10 06:35:10;;;;;;;0.88;0.88;;;-5.80;99.90;;;;;;5073659;28;20215;-79
2022/01/10 06:37:36;;;;;;;0.80;0.80;;;-5.80;99.90;;;;;;5074150;28;20291;-79
2022/01/10 06:40:05;;;;;;;0.80;0.80;;;-5.80;99.90;;;;;;5091840;28;20287;-79
2022/01/10 06:42:31;;;;;;;0.90;0.90;;;-5.90;99.90;;;;;;5091270;28;20748;-79
2022/01/10 06:44:57;;;;;;;1.17;1.10;;;-5.90;99.90;;;;;;5075881;28;20204;-79
2022/01/10 06:47:22;;;;;;;1.03;1.03;;;-5.90;99.90;;;;;;5091258;28;20564;-79
2022/01/10 06:49:48;;;;;;;1.10;1.10;;;-6.00;99.90;;;;;;5074267;28;20218;-79
2022/01/10 06:52:14;;;;;;;1.70;1.60;;;-6.00;99.90;;;;;;5072968;28;20192;-79
2022/01/10 06:54:41;;;;;;;0.90;0.90;;;-6.00;99.90;;;;;;5089900;28;20215;-79
2022/01/10 06:57:07;;;;;;;0.83;0.83;;;-6.00;99.90;;;;;;5078084;28;20215;-80
2022/01/10 06:59:33;;;;;;;0.80;0.80;;;-6.00;99.90;;;;;;5095966;28;20223;-78
2022/01/10 07:01:58;;;;;;;0.93;0.93;;;-6.00;99.90;;;;;;5114862;28;20344;-78
2022/01/10 07:04:26;;;;;;;2.17;2.03;;;-6.00;99.90;;;;;;5099638;28;20199;-82
2022/01/10 07:06:55;;;;;;;2.70;2.40;;;-6.00;99.90;;;;;;5097505;28;23802;-81
2022/01/10 07:09:27;;;;;;;1.10;1.10;;;-5.90;99.90;;;;;;5097116;28;20204;-82
2022/01/10 07:12:19;;;;;;;0.80;0.80;;;-5.90;99.90;;;;;;5098409;28;20553;-80
2022/01/10 07:14:45;;;;;;;1.33;1.23;;;-5.80;99.90;;;;;;5094761;28;20569;-80
2022/01/10 07:17:13;;;;;;;1.00;0.97;;;-5.70;99.90;;;;;;5097248;28;20203;-80
2022/01/10 07:19:39;;;;;;;1.48;1.25;;;-5.70;99.90;;;;;;5096823;28;20216;-79
2022/01/10 07:22:04;;;;;;;0.80;0.80;;;-5.70;99.90;;;;;;5098023;28;20211;-78
2022/01/10 07:24:32;;;;;;;2.40;2.20;;;-5.70;99.90;;;;;;5098231;28;20290;-79
2022/01/10 07:26:58;;;;;;;0.80;0.80;;;-5.60;99.90;;;;;;5115300;28;20670;-79
2022/01/10 07:29:24;;;;;;;8.35;2.53;;;-5.60;99.90;;;;;;5096995;28;20213;-79
2022/01/10 07:31:49;;;;;;;0.80;0.80;;;-5.60;99.90;;;;;;5096957;28;20604;-79
2022/01/10 07:34:15;;;;;;;0.95;0.95;;;-5.60;99.90;;;;;;5097023;28;20188;-80
2022/01/10 07:36:42;;;;;;;1.00;1.00;;;-5.70;99.90;;;;;;5096804;28;20282;-79
2022/01/10 07:39:09;;;;;;;1.77;1.67;;;-5.70;99.90;;;;;;5097729;28;20606;-80
2022/01/10 07:41:34;;;;;;;0.90;0.90;;;-5.80;99.90;;;;;;5079355;28;20305;-81
2022/01/10 07:44:00;;;;;;;1.80;1.63;;;-5.80;99.90;;;;;;5115490;28;20760;-79
2022/01/10 07:46:26;;;;;;;0.80;0.80;;;-5.80;99.90;;;;;;5097658;28;20222;-80
2022/01/10 07:48:54;;;;;;;0.90;0.90;;;-5.90;99.90;;;;;;5098127;28;20282;-80
2022/01/10 07:51:24;;;;;;;0.80;0.80;;;-5.80;99.90;;;;;;5097604;28;20241;-81
2022/01/10 07:53:50;;;;;;;0.87;0.87;;;-5.80;99.90;;;;;;5095775;28;20336;-81
2022/01/10 07:56:17;;;;;;;0.90;0.90;;;-5.70;99.90;;;;;;5098895;28;20202;-82
2022/01/10 07:58:42;;;;;;;1.10;1.10;;;-5.70;99.90;;;;;;5093845;28;20280;-79
2022/01/10 08:01:08;;;;;;;1.37;1.27;;;-5.70;99.90;;;;;;5081672;28;20197;-78
2022/01/10 08:03:34;;;;;;;1.25;1.20;;;-5.60;99.90;;;;;;5089780;28;20200;-78
2022/01/10 08:06:00;;;;;;;1.15;1.15;;;-5.50;99.90;;;;;;5092945;28;20203;-78
2022/01/10 08:08:26;;;;;;;1.07;1.07;;;-5.30;99.90;;;;;;5094040;28;20229;-77
2022/01/10 08:10:52;;;;;;;1.27;1.23;;;-5.20;99.90;;;;;;5094121;28;20293;-78
2022/01/10 08:13:17;;;;;;;0.90;0.90;;;-5.10;99.90;;;;;;5094139;28;20196;-78
2022/01/10 08:15:43;;;;;;;0.80;0.80;;;-4.90;99.90;;;;;;5092678;28;20206;-78
2022/01/10 08:18:10;;;;;;;0.90;0.90;;;-4.70;99.90;;;;;;5092773;28;20253;-78
2022/01/10 08:20:36;;;;;;;1.00;1.00;;;-4.50;99.90;;;;;;5092445;28;20204;-78
2022/01/10 08:23:01;;;;;;;0.80;0.80;;;-4.50;99.90;;;;;;5092527;28;20592;-78
2022/01/10 08:25:27;;;;;;;0.80;0.80;;;-4.30;99.90;;;;;;5092425;28;20257;-77
2022/01/10 08:27:52;;;;;;;0.90;0.90;;;-4.30;99.90;;;;;;5093922;28;20203;-78
2022/01/10 08:30:18;;;;;;;0.80;0.80;;;-4.30;99.90;;;;;;5093764;28;20220;-79
2022/01/10 08:32:46;;;;;;;1.05;1.05;;;-4.30;99.90;;;;;;5093672;28;20200;-78
2022/01/10 08:35:12;;;;;;;0.80;0.80;;;-4.20;99.90;;;;;;5092462;28;20295;-78
2022/01/10 08:37:38;;;;;;;4.20;3.28;;;-4.20;99.90;;;;;;5092162;28;20291;-78
2022/01/10 08:40:04;;;;;;;0.80;0.80;;;-4.20;99.90;;;;;;5092542;28;20295;-78
2022/01/10 08:42:31;;;;;;;0.90;0.90;;;-4.10;99.90;;;;;;5093251;28;20215;-77
2022/01/10 08:44:56;;;;;;;0.80;0.80;;;-4.10;99.90;;;;;;5092226;28;20612;-77
2022/01/10 08:47:22;;;;;;;0.80;0.80;;;-4.10;99.90;;;;;;5091988;28;20200;-78
2022/01/10 08:49:49;;;;;;;1.00;1.00;;;-4.00;99.90;;;;;;5093708;28;20203;-79
2022/01/10 08:52:16;;;;;;;0.80;0.80;;;-4.00;99.90;;;;;;5091914;28;20207;-78
2022/01/10 08:54:42;;;;;;;1.45;1.35;;;-4.00;99.90;;;;;;5091914;28;20349;-80
2022/01/10 08:57:13;;;;;;;0.80;0.80;;;-4.00;99.90;;;;;;5093242;28;20264;-79
2022/01/10 09:00:14;;;;;;;0.90;0.90;;;-3.90;99.90;;;;;;5103976;28;20316;-80
2022/01/10 09:02:40;;;;;;;0.95;0.95;;;-3.80;99.90;;;;;;5075861;28;20221;-80
2022/01/10 09:05:06;;;;;;;0.90;0.90;;;-3.80;99.90;;;;;;5113540;28;20285;-80
2022/01/10 09:07:32;;;;;;;0.70;0.70;;;-3.80;99.90;;;;;;5095403;28;20666;-78
2022/01/10 09:09:57;;;;;;;3.20;2.90;;;-3.80;99.90;;;;;;5113425;28;20207;-80
2022/01/10 09:12:23;;;;;;;0.80;0.80;;;-3.80;99.90;;;;;;5113437;28;20203;-79
2022/01/10 09:14:49;;;;;;;0.80;0.80;;;-3.80;99.90;;;;;;5096218;28;20207;-80
2022/01/10 09:17:15;;;;;;;0.90;0.90;;;-3.70;99.90;;;;;;5113242;28;20337;-80
2022/01/10 09:19:41;;;;;;;0.80;0.80;;;-3.70;99.90;;;;;;5095852;28;20666;-80
2022/01/10 09:22:07;;;;;;;0.80;0.80;;;-3.70;99.90;;;;;;5096144;28;20203;-79
2022/01/10 09:24:32;;;;;;;1.10;1.10;;;-3.70;99.90;;;;;;5095104;28;20251;-80
2022/01/10 09:26:58;;;;;;;0.80;0.80;;;-3.60;99.90;;;;;;5095853;28;20207;-80
2022/01/10 09:29:25;;;;;;;1.35;1.27;;;-3.60;99.90;;;;;;5112734;28;20195;-80
2022/01/10 09:31:50;;;;;;;0.80;0.80;;;-3.60;99.90;;;;;;5078936;28;20235;-80
2022/01/10 09:34:16;;;;;;;0.80;0.80;;;-3.60;99.90;;;;;;5112864;28;20234;-80
2022/01/10 09:36:42;;;;;;;0.90;0.90;;;-3.60;99.90;;;;;;5111582;28;20276;-80
2022/01/10 09:39:09;;;;;;;6.63;3.00;;;-3.60;99.90;;;;;;5095823;28;20606;-79
2022/01/10 09:41:35;;;;;;;1.20;1.10;;;-3.50;99.90;;;;;;5112487;28;20245;-80
2022/01/10 09:44:03;;;;;;;0.80;0.80;;;-3.50;99.90;;;;;;5112670;28;20206;-79
2022/01/10 09:46:30;;;;;;;1.02;1.02;;;-3.40;99.90;;;;;;5094029;28;20218;-80
2022/01/10 09:48:59;;;;;;;0.90;0.90;;;-3.40;99.90;;;;;;5094393;28;20204;-79
2022/01/10 09:51:27;;;;;;;2.38;1.95;;;-3.30;99.90;;;;;;5094054;28;20199;-79
2022/01/10 09:53:54;;;;;;;1.02;1.02;;;-3.20;99.90;;;;;;5112723;28;20196;-80
2022/01/10 09:56:21;;;;;;;1.25;1.20;;;-3.20;99.90;;;;;;5110380;28;20192;-79
2022/01/10 09:58:46;;;;;;;4.32;2.95;;;-3.20;99.90;;;;;;5090825;28;20669;-79
2022/01/10 10:01:14;;;;;;;0.90;0.90;;;-3.10;99.90;;;;;;5074730;28;20243;-81
2022/01/10 10:03:44;;;;;;;2.10;1.98;;;-3.10;99.90;;;;;;5074147;28;20210;-80
2022/01/10 10:06:10;;;;;;;0.80;0.80;;;-3.00;99.90;;;;;;5087965;28;20671;-80
2022/01/10 10:08:38;;;;;;;0.75;0.75;;;-3.00;99.90;;;;;;5074315;28;20204;-79
2022/01/10 10:11:07;;;;;;;0.82;0.82;;;-2.90;99.90;;;;;;5090912;28;20245;-80
2022/01/10 10:13:43;;;;;;;0.70;0.70;;;-2.90;99.90;;;;;;5091739;28;20193;-80
2022/01/10 10:16:13;;;;;;;1.35;1.25;;;-2.90;99.90;;;;;;5075434;28;20200;-80
2022/01/10 10:18:39;;;;;;;0.98;0.98;;;-2.80;99.90;;;;;;5077014;28;20204;-80
2022/01/10 10:21:14;;;;;;;0.82;0.82;;;-2.80;99.90;;;;;;5091821;28;20569;-79
2022/01/10 10:23:41;;;;;;;1.17;1.10;;;-2.70;99.90;;;;;;5074647;28;20198;-79
2022/01/10 10:26:07;;;;;;;0.80;0.80;;;-2.70;99.90;;;;;;5073581;28;20274;-80
2022/01/10 10:28:37;;;;;;;1.00;1.00;;;-2.70;99.90;;;;;;5075650;28;20204;-79
2022/01/10 10:31:03;;;;;;;0.70;0.70;;;-2.60;99.90;;;;;;5075080;28;20200;-79
2022/01/10 10:33:29;;;;;;;0.80;0.80;;;-2.50;99.90;;;;;;5076144;28;20295;-79
2022/01/10 10:36:08;;;;;;;0.68;0.68;;;-2.50;99.90;;;;;;5092080;28;20274;-79
2022/01/10 10:38:35;;;;;;;0.75;0.75;;;-2.40;99.90;;;;;;5078512;28;20678;-79
2022/01/10 10:41:03;;;;;;;0.80;0.80;;;-2.40;99.90;;;;;;5077371;28;20227;-79
2022/01/10 10:43:35;;;;;;;1.63;1.52;;;-2.30;99.90;;;;;;5078449;28;20269;-79
2022/01/10 10:46:02;;;;;;;0.75;0.75;;;-2.30;99.90;;;;;;5076664;28;20245;-80
2022/01/10 10:48:29;;;;;;;0.80;0.80;;;-2.20;99.90;;;;;;5079617;28;20195;-80
2022/01/10 10:50:59;;;;;;;0.90;0.90;;;-2.20;99.90;;;;;;5079811;28;20207;-80
2022/01/10 10:53:27;;;;;;;16.48;2.22;;;-2.20;99.90;;;;;;5080055;28;20304;-80
2022/01/10 10:55:56;;;;;;;0.80;0.80;;;-2.20;99.90;;;;;;5094127;28;20606;-80
2022/01/10 10:58:22;;;;;;;1.00;1.00;;;-2.10;99.90;;;;;;5077879;28;20204;-80
2022/01/10 11:00:47;;;;;;;0.80;0.80;;;-2.10;99.90;;;;;;5077946;28;20273;-80
2022/01/10 11:03:15;;;;;;;0.90;0.90;;;-2.10;99.90;;;;;;5078333;28;20258;-80
2022/01/10 11:05:43;;;;;;;0.85;0.85;;;-2.10;99.90;;;;;;5095285;28;20257;-80
2022/01/10 11:08:09;;;;;;;0.80;0.80;;;-2.10;99.90;;;;;;5093294;28;20200;-80
2022/01/10 11:10:37;;;;;;;0.80;0.80;;;-2.00;99.90;;;;;;5077056;28;20204;-80
2022/01/10 11:13:04;;;;;;;0.60;0.60;;;-2.00;99.90;;;;;;5094219;28;20249;-79
2022/01/10 11:15:38;;;;;;;0.70;0.70;;;-2.00;99.90;;;;;;5094247;28;20274;-80
2022/01/10 11:18:08;;;;;;;0.77;0.77;;;-2.00;99.90;;;;;;5095062;28;20210;-80
2022/01/10 11:20:45;;;;;;;1.00;1.00;;;-1.90;99.90;;;;;;5076907;28;20215;-80
2022/01/10 11:23:11;;;;;;;0.70;0.70;;;-1.90;99.90;;;;;;5076945;28;20256;-80
2022/01/10 11:25:40;;;;;;;1.02;1.02;;;-1.90;99.90;;;;;;5094977;28;20632;-79
2022/01/10 11:28:11;;;;;;;0.57;0.57;;;-1.80;99.90;;;;;;5093086;28;20196;-80
2022/01/10 11:30:40;;;;;;;0.60;0.60;;;-1.80;99.90;;;;;;5079483;28;20228;-79
2022/01/10 11:33:26;;;;;;;0.93;0.93;;;-1.80;99.90;;;;;;5076462;28;20204;-80
2022/01/10 11:35:58;;;;;;;0.68;0.68;;;-1.80;99.90;;;;;;5095236;28;20702;-80
2022/01/10 11:38:32;;;;;;;0.70;0.70;;;-1.80;99.90;;;;;;5094148;28;20208;-79
2022/01/10 11:41:00;;;;;;;1.23;1.20;;;-1.80;99.90;;;;;;5078353;28;20207;-80
2022/01/10 11:43:53;;;;;;;0.85;0.85;;;-1.80;99.90;;;;;;5075995;28;20208;-80
2022/01/10 11:46:24;;;;;;;0.60;0.60;;;-1.80;99.90;;;;;;5072633;28;20204;-80
2022/01/10 11:49:03;;;;;;;0.80;0.80;;;-1.70;99.90;;;;;;5094295;28;20565;-80
2022/01/10 11:51:31;;;;;;;0.70;0.70;;;-1.80;99.90;;;;;;5093233;28;20192;-80
2022/01/10 11:54:22;;;;;;;0.70;0.70;;;-1.80;99.90;;;;;;5077085;28;20679;-80
2022/01/10 11:56:57;;;;;;;0.77;0.77;;;-1.80;99.90;;;;;;5076328;28;20575;-80
2022/01/10 11:59:37;;;;;;;0.50;0.50;;;-1.70;99.90;;;;;;5077057;28;20219;-80
2022/01/10 12:02:18;;;;;;;1.35;1.25;;;-1.70;99.90;;;;;;5061205;28;20264;-80
2022/01/10 12:04:51;;;;;;;0.70;0.70;;;-1.70;99.90;;;;;;5077309;28;20286;-80
2022/01/10 12:07:18;;;;;;;0.82;0.82;;;-1.80;99.90;;;;;;5077488;28;20299;-80
2022/01/10 12:09:45;;;;;;;0.68;0.68;;;-1.70;99.90;;;;;;5077426;28;20196;-80
2022/01/10 12:12:14;;;;;;;0.70;0.70;;;-1.70;99.90;;;;;;5077465;28;20216;-80
2022/01/10 12:14:42;;;;;;;0.82;0.82;;;-1.70;99.90;;;;;;5077799;28;20233;-80
2022/01/10 12:17:08;;;;;;;0.60;0.60;;;-1.70;99.90;;;;;;5076271;28;20249;-80
2022/01/10 12:19:35;;;;;;;0.70;0.70;;;-1.70;99.90;;;;;;5076282;28;20240;-80
2022/01/10 12:22:02;;;;;;;0.68;0.68;;;-1.80;99.90;;;;;;5078062;28;20219;-79
2022/01/10 12:24:27;;;;;;;1.08;1.02;;;-1.80;99.90;;;;;;5077792;28;20208;-80
2022/01/10 12:26:53;;;;;;;1.27;1.17;;;-1.80;99.90;;;;;;5093833;28;20205;-80
2022/01/10 12:29:19;;;;;;;0.68;0.68;;;-1.80;99.90;;;;;;5085903;28;20204;-80
2022/01/10 12:31:46;;;;;;;0.80;0.80;;;-1.70;99.90;;;;;;5080549;28;20208;-80
2022/01/10 12:34:14;;;;;;;0.80;0.80;;;-1.70;99.90;;;;;;5093903;28;20640;-80
2022/01/10 12:36:41;;;;;;;1.13;1.10;;;-1.60;99.90;;;;;;5093661;28;20666;-80
2022/01/10 12:39:17;;;;;;;3.80;2.55;;;-1.60;99.90;;;;;;5093651;28;20864;-79
2022/01/10 12:41:43;;;;;;;0.90;0.90;;;-1.70;99.90;;;;;;5075659;28;20199;-80
2022/01/10 12:44:08;;;;;;;0.80;0.80;;;-1.70;99.90;;;;;;5095591;28;20207;-79
2022/01/10 12:46:36;;;;;;;0.90;0.82;;;-1.70;99.90;;;;;;5077855;28;20197;-79
2022/01/10 12:49:05;;;;;;;0.70;0.70;;;-1.70;99.90;;;;;;5075023;28;20246;-79
2022/01/10 12:51:55;;;;;;;0.70;0.70;;;-1.60;99.90;;;;;;5078749;28;20200;-79
2022/01/10 12:54:29;;;;;;;0.60;0.60;;;-1.60;99.90;;;;;;5069452;28;20200;-80
2022/01/10 12:56:56;;;;;;;0.70;0.70;;;-1.60;99.90;;;;;;5094599;28;20200;-80
2022/01/10 12:59:24;;;;;;;0.70;0.70;;;-1.60;99.90;;;;;;5090015;28;20225;-80
2022/01/10 13:01:57;;;;;;;0.70;0.70;;;-1.60;99.90;;;;;;5102860;28;20208;-80
2022/01/10 13:04:26;;;;;;;1.00;1.00;;;-1.60;99.90;;;;;;5114599;28;20222;-79
2022/01/10 13:06:53;;;;;;;1.13;1.02;;;-1.70;99.90;;;;;;5096505;28;20207;-79
2022/01/10 13:09:19;;;;;;;0.70;0.70;;;-1.70;99.90;;;;;;5097340;28;20240;-80
2022/01/10 13:11:48;;;;;;;0.80;0.80;;;-1.70;99.90;;;;;;5096772;28;20211;-79
2022/01/10 13:14:19;;;;;;;8.23;4.03;;;-1.70;99.90;;;;;;5101532;28;20203;-79
2022/01/10 13:16:54;;;;;;;0.70;0.70;;;-1.70;99.90;;;;;;5104491;28;20659;-79
2022/01/10 13:19:27;;;;;;;1.20;1.17;;;-1.70;99.90;;;;;;5114465;28;20211;-79
2022/01/10 13:22:03;;;;;;;0.70;0.70;;;-1.70;99.90;;;;;;5095671;28;20298;-79
2022/01/10 13:24:31;;;;;;;1.30;1.20;;;-1.70;99.90;;;;;;5112990;28;20199;-79
2022/01/10 13:26:59;;;;;;;0.90;0.90;;;-1.80;99.90;;;;;;5112998;28;20261;-79
2022/01/10 13:29:55;;;;;;;0.85;0.85;;;-1.80;99.90;;;;;;5112954;28;20279;-79
2022/01/10 13:32:31;;;;;;;0.95;0.95;;;-1.90;99.90;;;;;;5111333;28;20310;-80
2022/01/10 13:35:00;;;;;;;0.63;0.63;;;-1.90;99.90;;;;;;5097155;28;20207;-79
2022/01/10 13:37:29;;;;;;;1.02;1.00;;;-1.90;99.90;;;;;;5114015;28;20285;-80
2022/01/10 13:39:59;;;;;;;0.70;0.70;;;-1.90;99.90;;;;;;5107268;28;20636;-79
2022/01/10 13:42:25;;;;;;;1.02;0.98;;;-2.00;99.90;;;;;;5099558;28;20216;-79
2022/01/10 13:44:55;;;;;;;0.70;0.70;;;-2.00;99.90;;;;;;5114291;28;20282;-79
2022/01/10 13:47:21;;;;;;;1.05;1.05;;;-2.00;99.90;;;;;;5097581;28;20199;-80
2022/01/10 13:49:49;;;;;;;0.80;0.80;;;-2.00;99.90;;;;;;5105365;28;20214;-80
2022/01/10 13:52:17;;;;;;;1.38;1.08;;;-2.10;99.90;;;;;;5099792;28;20203;-80
2022/01/10 13:54:43;;;;;;;0.80;0.80;;;-2.10;99.90;;;;;;5103665;28;20230;-80
2022/01/10 13:57:22;;;;;;;1.60;1.30;;;-2.10;99.90;;;;;;5099151;28;20203;-79
2022/01/10 14:00:08;;;;;;;1.02;1.02;;;-2.10;99.90;;;;;;5104415;28;20223;-80
2022/01/10 14:02:43;;;;;;;0.70;0.70;;;-2.00;99.90;;;;;;5112004;28;20261;-80
2022/01/10 14:05:38;;;;;;;0.80;0.80;;;-2.10;99.90;;;;;;5107357;28;20698;-79
2022/01/10 14:08:18;;;;;;;0.70;0.70;;;-2.00;99.90;;;;;;5111709;28;20199;-82
2022/01/10 14:10:47;;;;;;;0.70;0.70;;;-2.00;99.90;;;;;;5093634;28;20252;-79
2022/01/10 14:13:13;;;;;;;0.85;0.85;;;-2.10;99.90;;;;;;5094046;28;20195;-80
2022/01/10 14:15:46;;;;;;;1.63;1.33;;;-2.10;99.90;;;;;;5112073;28;20667;-80
2022/01/10 14:18:12;;;;;;;0.80;0.80;;;-2.20;99.90;;;;;;5094297;28;20203;-80
2022/01/10 14:20:48;;;;;;;0.68;0.68;;;-2.20;99.90;;;;;;5076097;28;20207;-79
2022/01/10 14:23:16;;;;;;;0.70;0.70;;;-2.20;99.90;;;;;;5094280;28;20214;-79
2022/01/10 14:25:48;;;;;;;0.77;0.77;;;-2.20;99.90;;;;;;5111793;28;20588;-79
2022/01/10 14:28:13;;;;;;;1.90;1.65;;;-2.20;99.90;;;;;;5076472;28;20192;-80
2022/01/10 14:31:20;;;;;;;0.70;0.70;;;-2.20;99.90;;;;;;5094540;28;20199;-81
2022/01/10 14:33:50;;;;;;;0.70;0.70;;;-2.30;99.90;;;;;;5038832;28;20254;-79
2022/01/10 14:36:16;;;;;;;0.88;0.88;;;-2.30;99.90;;;;;;5055231;28;20214;-80
2022/01/10 14:38:43;;;;;;;1.23;1.13;;;-2.30;99.90;;;;;;5030600;28;20209;-79
2022/01/10 14:41:09;;;;;;;1.52;1.42;;;-2.30;99.90;;;;;;5047368;28;20209;-79
2022/01/10 14:43:35;;;;;;;0.85;0.85;;;-2.30;99.90;;;;;;5033451;28;20518;-80
2022/01/10 14:46:01;;;;;;;2.05;1.60;;;-2.30;99.90;;;;;;5033534;28;20201;-80
2022/01/10 14:48:29;;;;;;;2.47;1.55;;;-2.30;99.90;;;;;;5049469;28;20202;-80
2022/01/10 14:50:56;;;;;;;1.45;1.35;;;-2.30;99.90;;;;;;5017698;28;20294;-81
2022/01/10 14:53:22;;;;;;;0.70;0.70;;;-2.30;99.90;;;;;;5049157;28;20219;-81
2022/01/10 14:55:49;;;;;;;1.45;1.35;;;-2.30;99.90;;;;;;5033529;28;20731;-80
2022/01/10 14:58:23;;;;;;;0.60;0.60;;;-2.30;99.90;;;;;;5050521;28;20583;-80
2022/01/10 15:00:50;;;;;;;0.75;0.75;;;-2.30;99.90;;;;;;5049648;28;20220;-81